createdAt,value
2022-12-31T00:03:47.979Z,14.80
2022-12-31T00:08:55.240Z,12.80
2022-12-31T00:13:59.431Z,17.10
2022-12-31T00:19:06.571Z,16.10
2022-12-31T00:24:13.174Z,14.10
2022-12-31T00:29:16.703Z,16.60
2022-12-31T00:34:20.853Z,14.80
2022-12-31T00:39:25.099Z,21.80
2022-12-31T00:44:29.137Z,16.30
2022-12-31T00:49:32.930Z,11.40
2022-12-31T00:54:36.858Z,15.50
2022-12-31T00:59:40.618Z,14.40
2022-12-31T01:04:45.021Z,11.20
2022-12-31T01:09:48.782Z,15.80
2022-12-31T01:14:52.675Z,11.40
2022-12-31T01:19:56.499Z,12.40
2022-12-31T01:25:00.245Z,18.10
2022-12-31T01:30:06.269Z,17.90
2022-12-31T01:35:10.164Z,15.80
2022-12-31T01:40:14.296Z,12.40
2022-12-31T01:45:18.181Z,12.90
2022-12-31T01:50:36.855Z,19.10
2022-12-31T01:55:46.840Z,18.30
2022-12-31T02:00:53.621Z,17.40
2022-12-31T02:06:07.723Z,17.90
2022-12-31T02:11:36.904Z,20.20
2022-12-31T02:17:14.629Z,14.00
2022-12-31T02:22:31.385Z,16.20
2022-12-31T02:28:19.897Z,20.90
2022-12-31T02:33:53.942Z,17.80
2022-12-31T02:38:59.556Z,18.20
2022-12-31T02:44:23.837Z,17.30
2022-12-31T02:50:14.382Z,18.80
2022-12-31T02:55:59.769Z,16.70
2022-12-31T03:01:22.593Z,17.30
2022-12-31T03:06:26.885Z,19.80
2022-12-31T03:11:49.433Z,27.00
2022-12-31T03:16:53.042Z,22.10
2022-12-31T03:22:15.633Z,17.40
2022-12-31T03:27:19.637Z,23.70
2022-12-31T03:32:23.563Z,17.30
2022-12-31T03:37:27.287Z,23.90
2022-12-31T03:42:33.784Z,20.40
2022-12-31T03:47:37.733Z,26.40
2022-12-31T03:52:42.259Z,19.80
2022-12-31T03:57:46.177Z,22.80
2022-12-31T04:02:51.251Z,16.50
2022-12-31T04:07:56.061Z,26.20
2022-12-31T04:13:02.660Z,26.00
2022-12-31T04:18:06.498Z,20.80
2022-12-31T04:23:10.629Z,21.40
2022-12-31T04:28:14.262Z,22.00
2022-12-31T04:33:17.967Z,22.80
2022-12-31T04:38:21.909Z,30.80
2022-12-31T04:43:25.831Z,22.40
2022-12-31T04:48:29.641Z,21.70
2022-12-31T04:53:33.663Z,20.90
2022-12-31T04:58:39.167Z,17.20
2022-12-31T05:03:42.964Z,25.70
2022-12-31T05:08:47.205Z,22.30
2022-12-31T05:13:50.956Z,23.40
2022-12-31T05:18:54.605Z,27.70
2022-12-31T05:23:58.372Z,24.30
2022-12-31T05:29:02.608Z,31.40
2022-12-31T05:34:06.326Z,92.90
2022-12-31T05:39:09.952Z,31.00
2022-12-31T05:44:14.087Z,46.50
2022-12-31T05:49:17.701Z,23.70
2022-12-31T05:54:21.859Z,25.20
2022-12-31T05:59:26.075Z,26.50
2022-12-31T06:04:29.910Z,44.40
2022-12-31T06:09:33.510Z,24.70
2022-12-31T06:14:43.753Z,31.40
2022-12-31T06:19:49.361Z,23.70
2022-12-31T06:24:53.010Z,41.90
2022-12-31T06:29:57.003Z,26.50
2022-12-31T06:35:00.623Z,18.50
2022-12-31T06:40:05.396Z,17.70
2022-12-31T06:45:10.120Z,18.80
2022-12-31T06:50:13.629Z,21.20
2022-12-31T06:55:19.067Z,19.70
2022-12-31T07:00:23.917Z,19.20
2022-12-31T07:05:59.078Z,18.00
2022-12-31T07:11:24.101Z,14.40
2022-12-31T07:16:45.014Z,14.20
2022-12-31T07:21:53.494Z,22.50
2022-12-31T07:27:28.367Z,30.80
2022-12-31T07:33:00.348Z,23.50
2022-12-31T07:38:31.797Z,27.10
2022-12-31T07:44:31.240Z,24.30
2022-12-31T07:49:39.093Z,20.50
2022-12-31T07:54:42.805Z,23.40
2022-12-31T07:59:58.675Z,18.20
2022-12-31T08:05:11.207Z,18.10
2022-12-31T08:10:28.961Z,16.20
2022-12-31T08:15:34.318Z,14.00
2022-12-31T08:21:35.316Z,25.90
2022-12-31T08:27:28.790Z,37.80
2022-12-31T08:32:59.242Z,64.00
2022-12-31T08:38:33.476Z,25.70
2022-12-31T08:44:06.883Z,33.30
2022-12-31T08:49:11.212Z,20.60
2022-12-31T08:54:15.620Z,31.60
2022-12-31T08:59:36.796Z,23.30
2022-12-31T09:05:07.908Z,26.70
2022-12-31T09:10:39.954Z,34.70
2022-12-31T09:16:14.247Z,24.20
2022-12-31T09:21:18.617Z,33.60
2022-12-31T09:27:03.945Z,23.70
2022-12-31T09:32:21.773Z,27.00
2022-12-31T09:38:17.999Z,20.60
2022-12-31T09:43:46.185Z,48.30
2022-12-31T09:49:48.117Z,28.40
2022-12-31T09:55:24.393Z,29.00
2022-12-31T10:00:59.472Z,37.50
2022-12-31T10:06:54.974Z,28.30
2022-12-31T10:12:41.211Z,25.80
2022-12-31T10:18:08.061Z,26.60
2022-12-31T10:23:54.811Z,31.30
2022-12-31T10:29:41.275Z,56.20
2022-12-31T10:35:13.123Z,35.40
2022-12-31T10:40:46.121Z,20.10
2022-12-31T10:46:29.600Z,51.10
2022-12-31T10:52:04.855Z,45.60
2022-12-31T10:57:45.207Z,36.30
2022-12-31T11:03:25.178Z,43.30
2022-12-31T11:09:48.597Z,60.70
2022-12-31T11:15:29.924Z,48.30
2022-12-31T11:20:57.887Z,33.70
2022-12-31T11:26:12.487Z,41.70
2022-12-31T11:31:52.614Z,37.00
2022-12-31T11:37:37.497Z,32.30
2022-12-31T11:42:44.884Z,35.00
2022-12-31T11:48:30.194Z,31.40
2022-12-31T11:54:01.830Z,43.20
2022-12-31T11:59:19.008Z,24.30
2022-12-31T12:04:25.856Z,23.60
2022-12-31T12:09:34.805Z,22.00
2022-12-31T12:19:55.528Z,31.90
2022-12-31T12:25:17.843Z,34.70
2022-12-31T12:30:28.401Z,33.10
2022-12-31T12:35:36.146Z,30.40
2022-12-31T12:40:41.324Z,32.20
2022-12-31T12:45:52.220Z,43.30
2022-12-31T12:50:56.716Z,24.70
2022-12-31T12:56:17.312Z,53.30
2022-12-31T13:01:27.117Z,38.70
2022-12-31T13:06:49.780Z,28.80
2022-12-31T13:12:07.574Z,26.90
2022-12-31T13:17:49.804Z,38.60
2022-12-31T13:23:18.957Z,28.90
2022-12-31T13:28:26.444Z,33.10
2022-12-31T13:33:50.559Z,29.00
2022-12-31T13:39:03.600Z,36.40
2022-12-31T13:44:37.627Z,24.30
2022-12-31T13:49:53.542Z,27.90
2022-12-31T13:55:27.261Z,42.50
2022-12-31T14:00:40.537Z,43.80
2022-12-31T14:05:58.722Z,38.70
2022-12-31T14:11:47.148Z,38.70
2022-12-31T14:17:04.587Z,25.40
2022-12-31T14:22:22.708Z,45.60
2022-12-31T14:27:42.495Z,57.60
2022-12-31T14:33:21.824Z,53.00
2022-12-31T14:39:14.288Z,46.40
2022-12-31T14:45:08.592Z,45.10
2022-12-31T14:50:21.395Z,63.40
2022-12-31T14:55:34.751Z,87.50
2022-12-31T15:00:52.174Z,72.10
2022-12-31T15:06:25.409Z,43.70
2022-12-31T15:11:50.869Z,43.20
2022-12-31T15:17:08.039Z,77.60
2022-12-31T15:22:33.670Z,84.80
2022-12-31T15:27:42.892Z,80.30
2022-12-31T15:32:48.784Z,55.00
2022-12-31T15:38:37.489Z,100.70
2022-12-31T15:44:30.526Z,58.00
2022-12-31T15:49:45.796Z,27.60
2022-12-31T15:55:03.921Z,77.00
2022-12-31T16:00:27.334Z,61.60
2022-12-31T16:05:38.926Z,36.00
2022-12-31T16:10:53.366Z,34.00
2022-12-31T16:16:36.119Z,35.20
2022-12-31T16:21:49.173Z,47.20
2022-12-31T16:27:10.632Z,40.40
2022-12-31T16:32:20.624Z,40.90
2022-12-31T16:37:29.363Z,40.00
2022-12-31T16:42:44.471Z,43.60
2022-12-31T16:47:57.208Z,57.10
2022-12-31T16:53:17.794Z,40.40
2022-12-31T16:58:38.750Z,34.30
2022-12-31T17:03:58.892Z,43.40
2022-12-31T17:09:22.564Z,43.10
2022-12-31T17:14:33.362Z,18.60
2022-12-31T17:19:53.299Z,25.30
2022-12-31T17:25:19.134Z,26.00
2022-12-31T17:30:37.069Z,29.30
2022-12-31T17:35:49.959Z,30.60
2022-12-31T17:41:21.039Z,38.60
2022-12-31T17:46:38.745Z,44.10
2022-12-31T17:51:54.460Z,31.90
2022-12-31T17:57:02.640Z,39.00
2022-12-31T18:02:14.058Z,29.00
2022-12-31T18:07:19.431Z,24.60
2022-12-31T18:12:26.127Z,36.00
2022-12-31T18:17:31.087Z,27.60
2022-12-31T18:22:36.440Z,22.50
2022-12-31T18:27:44.037Z,17.30
2022-12-31T18:32:49.374Z,20.30
2022-12-31T18:37:53.279Z,17.50
2022-12-31T18:43:02.666Z,21.50
2022-12-31T18:48:12.083Z,25.10
2022-12-31T18:53:21.260Z,23.90
2022-12-31T19:03:29.169Z,26.60
2022-12-31T19:08:34.049Z,21.50
2022-12-31T19:13:38.078Z,25.80
2022-12-31T19:18:42.907Z,23.30
2022-12-31T19:23:47.381Z,19.10
2022-12-31T19:28:52.524Z,23.10
2022-12-31T19:33:57.167Z,25.10
2022-12-31T19:39:01.193Z,25.20
2022-12-31T19:44:04.923Z,19.40
2022-12-31T19:49:12.935Z,28.90
2022-12-31T19:54:16.599Z,17.50
2022-12-31T19:59:20.625Z,25.80
2022-12-31T20:04:24.488Z,18.80
2022-12-31T20:09:28.350Z,23.70
2022-12-31T20:14:32.476Z,25.80
2022-12-31T20:19:36.614Z,25.30
2022-12-31T20:24:40.636Z,17.30
2022-12-31T20:29:44.913Z,26.10
2022-12-31T20:34:49.108Z,26.60
2022-12-31T20:39:52.808Z,24.30
2022-12-31T20:44:56.739Z,22.70
2022-12-31T20:50:11.391Z,23.60
2022-12-31T20:55:18.420Z,31.90
2022-12-31T21:00:23.005Z,30.20
2022-12-31T21:05:27.357Z,34.90
2022-12-31T21:10:31.375Z,56.40
2022-12-31T21:15:45.997Z,25.70
2022-12-31T21:20:53.082Z,38.30
2022-12-31T21:25:57.284Z,19.80
2022-12-31T21:31:06.022Z,21.50
2022-12-31T21:41:34.807Z,37.60
2022-12-31T21:46:54.563Z,13.40
2022-12-31T21:52:23.976Z,20.80
2022-12-31T21:57:27.907Z,14.90
2022-12-31T22:03:04.441Z,21.00
2022-12-31T22:08:08.539Z,13.80
2022-12-31T22:13:13.832Z,16.30
2022-12-31T22:18:17.928Z,11.50
2022-12-31T22:23:22.622Z,29.50
2022-12-31T22:28:38.167Z,73.40
2022-12-31T22:33:45.267Z,37.00
2022-12-31T22:38:54.746Z,17.10
2022-12-31T22:44:04.006Z,18.80
2022-12-31T22:49:11.315Z,16.20
2022-12-31T22:54:15.801Z,12.70
2022-12-31T22:59:20.242Z,13.50
2022-12-31T23:04:24.974Z,62.70
2022-12-31T23:09:48.096Z,59.30
2022-12-31T23:15:10.764Z,20.70
2022-12-31T23:20:38.370Z,19.70
2022-12-31T23:25:51.928Z,13.50
2022-12-31T23:30:55.917Z,13.60
2022-12-31T23:36:07.604Z,17.90
2022-12-31T23:41:21.041Z,15.00
2022-12-31T23:46:25.113Z,15.00
2022-12-31T23:51:28.934Z,15.50
2022-12-31T23:56:32.972Z,15.90
